Terminal Aerodrome Forecast
Issued by NWS

Home | Current Version | Previous Version | Text Only | Print | Product List | Glossary On
Versions: 1 2 3 4 5 6 7 8 9 10 11 12 13 14 15 16 17 18 19 20 21 22 23 24 25 26 27 28 29
000
FTPQ31 PGUM 260200 AAA
TAFPQ
TAF AMD
PTYA 260207Z 2602/2624 08012KT P6SM VCSH SCT016 SCT120
      TEMPO 2602/2604 3SM SHRA BKN012 OVC110=

USA.gov is the U.S. government's official web portal to all federal, state and local government web resources and services.